Time;durP1;ratioP1;P1;durP2;ratioP2;P2;SDS_P1;SDS_P2;PMS_P1;PMS_P2;Temp;Humidity;BMP_temperature;BMP_pressure;BME280_temperature;BME280_humidity;BME280_pressure;Samples;Min_cycle;Max_cycle;Signal;HPM_P1;HPM_P2
2024/01/04 00:01:40;;;;;;;1999.90;999.90;;;;;;;;;;4972488;28;20055;-86
2024/01/04 00:04:06;;;;;;;1999.90;999.90;;;;;;;;;;4957382;29;20055;-85
2024/01/04 00:06:33;;;;;;;1999.90;999.90;;;;;;;;;;4982829;28;20061;-84
2024/01/04 00:09:00;;;;;;;1999.90;999.90;;;;;;;;;;4980643;28;20047;-88
2024/01/04 00:11:26;;;;;;;1999.90;999.90;;;;;;;;;;4959535;28;20043;-88
2024/01/04 00:13:53;;;;;;;1999.90;999.90;;;;;;;;;;4961598;28;20141;-90
2024/01/04 00:16:19;;;;;;;1999.90;999.90;;;;;;;;;;4954918;28;20133;-87
2024/01/04 00:18:48;;;;;;;1999.90;999.90;;;;;;;;;;4958823;28;20079;-86
2024/01/04 00:21:14;;;;;;;1999.90;999.90;;;;;;;;;;4960635;28;20126;-88
2024/01/04 00:23:41;;;;;;;1999.90;999.90;;;;;;;;;;4966257;28;20118;-88
2024/01/04 00:26:07;;;;;;;1999.90;999.90;;;;;;;;;;4962129;28;20059;-87
2024/01/04 00:28:34;;;;;;;1999.90;999.90;;;;;;;;;;4963501;28;20115;-90
2024/01/04 00:31:00;;;;;;;1999.90;999.90;;;;;;;;;;4957495;28;20166;-87
2024/01/04 00:33:27;;;;;;;1999.90;999.90;;;;;;;;;;4967226;28;20053;-86
2024/01/04 00:35:55;;;;;;;1999.90;999.90;;;;;;;;;;4970828;28;20075;-90
2024/01/04 00:38:21;;;;;;;1999.90;999.90;;;;;;;;;;4966390;28;20154;-87
2024/01/04 00:40:48;;;;;;;1999.90;999.90;;;;;;;;;;4964697;28;20055;-88
2024/01/04 00:43:14;;;;;;;1999.90;999.90;;;;;;;;;;4965739;28;20131;-87
2024/01/04 00:45:41;;;;;;;1999.90;999.90;;;;;;;;;;4974868;28;20499;-86
2024/01/04 00:48:08;;;;;;;1999.90;999.90;;;;;;;;;;4971073;28;20057;-87
2024/01/04 00:50:34;;;;;;;1999.90;999.90;;;;;;;;;;4972748;28;20409;-87
2024/01/04 00:53:02;;;;;;;1999.90;999.90;;;;;;;;;;4961679;28;20113;-87
2024/01/04 00:55:29;;;;;;;1999.90;999.90;;;;;;;;;;4967925;28;20050;-86
2024/01/04 00:57:56;;;;;;;1999.90;999.90;;;;;;;;;;4977075;28;20043;-89
2024/01/04 01:00:22;;;;;;;1999.90;999.90;;;;;;;;;;4964150;28;20051;-86
2024/01/04 01:02:49;;;;;;;1999.90;999.90;;;;;;;;;;4964234;28;20043;-85
2024/01/04 01:05:15;;;;;;;1999.90;999.90;;;;;;;;;;4966102;28;20047;-85
2024/01/04 01:07:42;;;;;;;1999.90;999.90;;;;;;;;;;4970686;28;20057;-86
2024/01/04 01:10:10;;;;;;;1999.90;999.90;;;;;;;;;;4976945;28;20046;-87
2024/01/04 01:12:36;;;;;;;1999.90;999.90;;;;;;;;;;4967454;28;20059;-86
2024/01/04 01:15:03;;;;;;;1999.90;999.90;;;;;;;;;;4967484;28;20047;-84
2024/01/04 01:17:30;;;;;;;1999.90;999.90;;;;;;;;;;4970350;28;20128;-86
2024/01/04 01:19:57;;;;;;;1999.90;999.90;;;;;;;;;;4967023;28;20066;-85
2024/01/04 01:22:26;;;;;;;1999.90;999.90;;;;;;;;;;4965705;28;20083;-85
2024/01/04 01:24:53;;;;;;;1999.90;999.90;;;;;;;;;;4971582;28;20043;-86
2024/01/04 01:27:21;;;;;;;1999.90;999.90;;;;;;;;;;4967364;28;20047;-86
2024/01/04 01:29:47;;;;;;;1999.90;999.90;;;;;;;;;;4972553;28;20065;-86
2024/01/04 01:32:14;;;;;;;1999.90;999.90;;;;;;;;;;4972270;28;20049;-87
2024/01/04 01:34:43;;;;;;;1999.90;999.90;;;;;;;;;;4973241;28;20053;-86
2024/01/04 01:37:09;;;;;;;1999.90;999.90;;;;;;;;;;4973457;28;20051;-85
2024/01/04 01:39:36;;;;;;;1999.90;999.90;;;;;;;;;;4963844;28;20062;-86
2024/01/04 01:42:02;;;;;;;1999.90;999.90;;;;;;;;;;4968042;28;20053;-85
2024/01/04 01:44:30;;;;;;;1999.90;999.90;;;;;;;;;;4964489;28;20122;-86
2024/01/04 01:46:57;;;;;;;1999.90;999.90;;;;;;;;;;4968924;28;20062;-87
2024/01/04 01:49:23;;;;;;;1999.90;999.90;;;;;;;;;;4966943;28;20054;-85
2024/01/04 01:52:12;;;;;;;1999.90;999.90;;;;;;;;;;4966468;28;20047;-86
2024/01/04 01:54:39;;;;;;;1999.90;999.90;;;;;;;;;;4962388;28;20047;-88
2024/01/04 01:57:06;;;;;;;1999.90;999.90;;;;;;;;;;4961972;28;20486;-85
2024/01/04 01:59:34;;;;;;;1999.90;999.90;;;;;;;;;;4965035;28;20047;-85
2024/01/04 02:02:00;;;;;;;1999.90;999.90;;;;;;;;;;4970737;28;20054;-86
2024/01/04 02:04:27;;;;;;;1999.90;999.90;;;;;;;;;;4966674;28;20049;-85
2024/01/04 02:06:53;;;;;;;1999.90;999.90;;;;;;;;;;4970785;28;20055;-87
2024/01/04 02:09:20;;;;;;;1999.90;999.90;;;;;;;;;;4969771;28;20046;-85
2024/01/04 02:11:46;;;;;;;1999.90;999.90;;;;;;;;;;4971265;28;20074;-86
2024/01/04 02:14:13;;;;;;;1999.90;999.90;;;;;;;;;;4974785;28;20137;-88
2024/01/04 02:16:41;;;;;;;1999.90;999.90;;;;;;;;;;4962323;28;20042;-89
2024/01/04 02:19:08;;;;;;;1999.90;999.90;;;;;;;;;;4973786;28;20050;-86
2024/01/04 02:21:38;;;;;;;1999.90;999.90;;;;;;;;;;4974181;28;20110;-87
2024/01/04 02:24:06;;;;;;;1999.90;999.90;;;;;;;;;;4970862;28;20199;-85
2024/01/04 02:26:33;;;;;;;1999.90;999.90;;;;;;;;;;4966705;28;20047;-85
2024/01/04 02:28:59;;;;;;;1999.90;999.90;;;;;;;;;;4972787;28;20061;-89
2024/01/04 02:31:26;;;;;;;1999.90;999.90;;;;;;;;;;4967774;28;20090;-88
2024/01/04 02:33:52;;;;;;;1999.90;999.90;;;;;;;;;;4963699;28;20054;-87
2024/01/04 02:36:19;;;;;;;1999.90;999.90;;;;;;;;;;4965620;28;20053;-87
2024/01/04 02:38:46;;;;;;;1999.90;999.90;;;;;;;;;;4973194;28;20138;-85
2024/01/04 02:41:14;;;;;;;1999.90;999.90;;;;;;;;;;4967285;28;20417;-85
2024/01/04 02:43:40;;;;;;;1999.90;999.90;;;;;;;;;;4971129;28;20047;-84
2024/01/04 02:46:07;;;;;;;1999.90;999.90;;;;;;;;;;4963468;28;20053;-87
2024/01/04 02:48:33;;;;;;;1999.90;999.90;;;;;;;;;;4973755;28;20054;-84
2024/01/04 02:51:06;;;;;;;1999.90;999.90;;;;;;;;;;4967062;28;20409;-90
2024/01/04 02:53:33;;;;;;;1999.90;999.90;;;;;;;;;;4972577;28;20059;-86
2024/01/04 02:55:59;;;;;;;1999.90;999.90;;;;;;;;;;4963265;28;20059;-86
2024/01/04 02:58:28;;;;;;;1999.90;999.90;;;;;;;;;;4967961;28;20059;-86
2024/01/04 03:00:54;;;;;;;1999.90;999.90;;;;;;;;;;4968508;28;20043;-84
2024/01/04 03:03:21;;;;;;;1999.90;999.90;;;;;;;;;;4961337;28;20058;-85
2024/01/04 03:05:47;;;;;;;1999.90;999.90;;;;;;;;;;4967063;28;20059;-86
2024/01/04 03:08:14;;;;;;;1999.90;999.90;;;;;;;;;;4959801;28;20051;-86
2024/01/04 03:10:41;;;;;;;1999.90;999.90;;;;;;;;;;4964221;28;20051;-86
2024/01/04 03:13:08;;;;;;;1999.90;999.90;;;;;;;;;;4968681;28;20043;-84
2024/01/04 03:15:36;;;;;;;1999.90;999.90;;;;;;;;;;4964229;28;20064;-86
2024/01/04 03:18:02;;;;;;;1999.90;999.90;;;;;;;;;;4966581;28;20130;-84
2024/01/04 03:20:29;;;;;;;1999.90;999.90;;;;;;;;;;4969349;28;20417;-88
2024/01/04 03:22:56;;;;;;;1999.90;999.90;;;;;;;;;;4948256;28;20055;-85
2024/01/04 03:25:22;;;;;;;1999.90;999.90;;;;;;;;;;4965538;28;20061;-88
2024/01/04 03:27:49;;;;;;;1999.90;999.90;;;;;;;;;;4972548;28;20050;-87
2024/01/04 03:30:15;;;;;;;1999.90;999.90;;;;;;;;;;4962821;28;20135;-84
2024/01/04 03:32:44;;;;;;;1999.90;999.90;;;;;;;;;;4958253;28;20069;-86
2024/01/04 03:35:10;;;;;;;1999.90;999.90;;;;;;;;;;4957213;28;20047;-86
2024/01/04 03:37:37;;;;;;;1999.90;999.90;;;;;;;;;;4967907;28;20047;-86
2024/01/04 03:40:04;;;;;;;1999.90;999.90;;;;;;;;;;4973816;28;20489;-87
2024/01/04 03:42:32;;;;;;;1999.90;999.90;;;;;;;;;;4967176;28;20112;-88
2024/01/04 03:44:58;;;;;;;1999.90;999.90;;;;;;;;;;4966525;28;20054;-85
2024/01/04 03:47:26;;;;;;;1999.90;999.90;;;;;;;;;;4973218;28;20039;-85
2024/01/04 03:49:54;;;;;;;1999.90;999.90;;;;;;;;;;4965337;28;20051;-89
2024/01/04 03:52:20;;;;;;;1999.90;999.90;;;;;;;;;;4960309;28;20083;-88
2024/01/04 03:54:47;;;;;;;1999.90;999.90;;;;;;;;;;4959143;28;20039;-87
2024/01/04 03:57:14;;;;;;;1999.90;999.90;;;;;;;;;;4959669;28;20074;-86
2024/01/04 03:59:40;;;;;;;1999.90;999.90;;;;;;;;;;4969480;28;20050;-88
2024/01/04 04:02:07;;;;;;;1999.90;999.90;;;;;;;;;;4970049;28;20051;-86
2024/01/04 04:04:33;;;;;;;1999.90;999.90;;;;;;;;;;4958985;28;20063;-85
2024/01/04 04:07:01;;;;;;;1999.90;999.90;;;;;;;;;;4967831;28;20587;-86
2024/01/04 04:09:28;;;;;;;1999.90;999.90;;;;;;;;;;4958275;28;20051;-86
2024/01/04 04:11:54;;;;;;;1999.90;999.90;;;;;;;;;;4962344;28;20059;-88
2024/01/04 04:14:21;;;;;;;1999.90;999.90;;;;;;;;;;4961070;28;20138;-88
2024/01/04 04:16:48;;;;;;;1999.90;999.90;;;;;;;;;;4972224;28;20057;-86
2024/01/04 04:19:16;;;;;;;1999.90;999.90;;;;;;;;;;4970219;28;20062;-87
2024/01/04 04:21:51;;;;;;;1999.90;999.90;;;;;;;;;;4964392;28;20042;-88
2024/01/04 04:24:19;;;;;;;1999.90;999.90;;;;;;;;;;4968093;28;20054;-88
2024/01/04 04:26:46;;;;;;;1999.90;999.90;;;;;;;;;;4965214;28;20054;-86
2024/01/04 04:29:12;;;;;;;1999.90;999.90;;;;;;;;;;4970622;28;20057;-87
2024/01/04 04:31:39;;;;;;;1999.90;999.90;;;;;;;;;;4970278;28;20057;-87
2024/01/04 04:34:05;;;;;;;1999.90;999.90;;;;;;;;;;4965721;28;20068;-86
2024/01/04 04:36:32;;;;;;;1999.90;999.90;;;;;;;;;;4965581;28;20134;-87
2024/01/04 04:39:00;;;;;;;1999.90;999.90;;;;;;;;;;4971767;28;20081;-86
2024/01/04 04:41:28;;;;;;;1999.90;999.90;;;;;;;;;;4960156;28;20086;-89
2024/01/04 04:43:55;;;;;;;1999.90;999.90;;;;;;;;;;4968070;28;20043;-87
2024/01/04 04:46:21;;;;;;;1999.90;999.90;;;;;;;;;;4964001;28;20050;-85
2024/01/04 04:48:48;;;;;;;1999.90;999.90;;;;;;;;;;4969672;28;20046;-86
2024/01/04 04:51:15;;;;;;;1999.90;999.90;;;;;;;;;;4972008;28;20074;-87
2024/01/04 04:53:41;;;;;;;1999.90;999.90;;;;;;;;;;4966395;28;20134;-87
2024/01/04 04:56:09;;;;;;;1999.90;999.90;;;;;;;;;;4972142;28;20051;-89
2024/01/04 04:58:37;;;;;;;1999.90;999.90;;;;;;;;;;4967579;28;20133;-87
2024/01/04 05:01:04;;;;;;;1999.90;999.90;;;;;;;;;;4961716;28;20047;-86
2024/01/04 05:03:31;;;;;;;1999.90;999.90;;;;;;;;;;4965933;28;20055;-88
2024/01/04 05:05:57;;;;;;;1999.90;999.90;;;;;;;;;;4970351;28;20520;-88
2024/01/04 05:08:24;;;;;;;1999.90;999.90;;;;;;;;;;4969237;28;20486;-87
2024/01/04 05:10:50;;;;;;;1999.90;999.90;;;;;;;;;;4974318;28;20429;-88
2024/01/04 05:13:17;;;;;;;1999.90;999.90;;;;;;;;;;4969643;28;20051;-86
2024/01/04 05:15:45;;;;;;;1999.90;999.90;;;;;;;;;;4962486;28;20509;-86
2024/01/04 05:18:11;;;;;;;1999.90;999.90;;;;;;;;;;4962924;28;20065;-87
2024/01/04 05:20:47;;;;;;;1999.90;999.90;;;;;;;;;;4971881;28;20051;-87
2024/01/04 05:23:14;;;;;;;1999.90;999.90;;;;;;;;;;4966433;28;20063;-87
2024/01/04 05:25:40;;;;;;;1999.90;999.90;;;;;;;;;;4967750;28;20055;-88
2024/01/04 05:28:07;;;;;;;1999.90;999.90;;;;;;;;;;4963686;28;20047;-86
2024/01/04 05:30:33;;;;;;;1999.90;999.90;;;;;;;;;;4968130;28;20042;-87
2024/01/04 05:33:01;;;;;;;1999.90;999.90;;;;;;;;;;4959023;28;20051;-88
2024/01/04 05:35:28;;;;;;;1999.90;999.90;;;;;;;;;;4970083;28;20055;-88
2024/01/04 05:37:54;;;;;;;1999.90;999.90;;;;;;;;;;4962148;28;20045;-89
2024/01/04 05:40:21;;;;;;;1999.90;999.90;;;;;;;;;;4967444;28;20047;-88
2024/01/04 05:42:48;;;;;;;1999.90;999.90;;;;;;;;;;4968728;28;20046;-87
2024/01/04 05:45:14;;;;;;;1999.90;999.90;;;;;;;;;;4966181;28;20051;-87
2024/01/04 05:47:41;;;;;;;1999.90;999.90;;;;;;;;;;4968636;28;20043;-88
2024/01/04 05:50:10;;;;;;;1999.90;999.90;;;;;;;;;;4969764;28;20056;-86
2024/01/04 05:52:36;;;;;;;1999.90;999.90;;;;;;;;;;4974108;28;20042;-86
2024/01/04 05:55:04;;;;;;;1999.90;999.90;;;;;;;;;;4970097;28;20053;-91
2024/01/04 05:57:31;;;;;;;1999.90;999.90;;;;;;;;;;4971166;28;20106;-86
2024/01/04 05:59:58;;;;;;;1999.90;999.90;;;;;;;;;;4985942;28;20094;-89
2024/01/04 06:02:26;;;;;;;1999.90;999.90;;;;;;;;;;4977880;28;20050;-88
2024/01/04 06:04:53;;;;;;;1999.90;999.90;;;;;;;;;;4971967;28;20133;-84
2024/01/04 06:07:21;;;;;;;1999.90;999.90;;;;;;;;;;4972553;28;20053;-88
2024/01/04 06:09:47;;;;;;;1999.90;999.90;;;;;;;;;;4973682;28;20379;-85
2024/01/04 06:12:14;;;;;;;1999.90;999.90;;;;;;;;;;4973569;28;20460;-86
2024/01/04 06:14:40;;;;;;;1999.90;999.90;;;;;;;;;;4973751;28;20497;-85
2024/01/04 06:17:07;;;;;;;1999.90;999.90;;;;;;;;;;4964851;28;20404;-86
2024/01/04 06:19:55;;;;;;;1999.90;999.90;;;;;;;;;;4972414;28;20075;-86
2024/01/04 06:22:23;;;;;;;1999.90;999.90;;;;;;;;;;4968547;28;20762;-87
2024/01/04 06:24:50;;;;;;;1999.90;999.90;;;;;;;;;;4959791;28;20055;-89
2024/01/04 06:27:16;;;;;;;1999.90;999.90;;;;;;;;;;4966952;28;20047;-86
2024/01/04 06:29:44;;;;;;;1999.90;999.90;;;;;;;;;;4960498;28;20054;-86
2024/01/04 06:32:10;;;;;;;1999.90;999.90;;;;;;;;;;4965851;28;20584;-86
2024/01/04 06:34:37;;;;;;;1999.90;999.90;;;;;;;;;;4962486;28;20138;-87
2024/01/04 06:37:04;;;;;;;1999.90;999.90;;;;;;;;;;4963779;28;20058;-86
2024/01/04 06:39:32;;;;;;;1999.90;999.90;;;;;;;;;;4959307;28;20130;-86
2024/01/04 06:41:58;;;;;;;1999.90;999.90;;;;;;;;;;4963732;28;20051;-88
2024/01/04 06:44:25;;;;;;;1999.90;999.90;;;;;;;;;;4968711;28;20053;-85
2024/01/04 06:46:51;;;;;;;1999.90;999.90;;;;;;;;;;4966333;28;20058;-87
2024/01/04 06:49:18;;;;;;;1999.90;999.90;;;;;;;;;;4968248;28;20051;-87
2024/01/04 06:51:45;;;;;;;1999.90;999.90;;;;;;;;;;4961927;28;20083;-85
2024/01/04 06:54:11;;;;;;;1999.90;999.90;;;;;;;;;;4964587;28;20051;-87
2024/01/04 06:56:39;;;;;;;1999.90;999.90;;;;;;;;;;4961240;28;20047;-84
2024/01/04 06:59:06;;;;;;;1999.90;999.90;;;;;;;;;;4963424;28;20042;-86
2024/01/04 07:01:32;;;;;;;1999.90;999.90;;;;;;;;;;4964269;28;20059;-86
2024/01/04 07:03:59;;;;;;;1999.90;999.90;;;;;;;;;;4961133;28;20054;-86
2024/01/04 07:06:25;;;;;;;1999.90;999.90;;;;;;;;;;4972186;28;20065;-88
2024/01/04 07:08:52;;;;;;;1999.90;999.90;;;;;;;;;;4968848;28;20489;-87
2024/01/04 07:11:19;;;;;;;1999.90;999.90;;;;;;;;;;4974130;28;20057;-87
2024/01/04 07:13:47;;;;;;;1999.90;999.90;;;;;;;;;;4970481;28;20140;-86
2024/01/04 07:16:13;;;;;;;1999.90;999.90;;;;;;;;;;4969816;28;20062;-87
2024/01/04 07:18:40;;;;;;;1999.90;999.90;;;;;;;;;;4961877;28;20759;-86
2024/01/04 07:21:13;;;;;;;1999.90;999.90;;;;;;;;;;4969001;28;20113;-89
2024/01/04 07:23:39;;;;;;;1999.90;999.90;;;;;;;;;;4953397;28;20565;-87
2024/01/04 07:26:07;;;;;;;1999.90;999.90;;;;;;;;;;4952159;29;20427;-87
2024/01/04 07:28:33;;;;;;;1999.90;999.90;;;;;;;;;;4938552;29;20103;-88
2024/01/04 07:31:01;;;;;;;1999.90;999.90;;;;;;;;;;4948059;29;20059;-86
2024/01/04 07:33:28;;;;;;;1999.90;999.90;;;;;;;;;;4939742;29;20138;-86
2024/01/04 07:35:54;;;;;;;1999.90;999.90;;;;;;;;;;4943583;29;20051;-88
2024/01/04 07:38:21;;;;;;;1999.90;999.90;;;;;;;;;;4946466;29;20047;-89
2024/01/04 07:40:48;;;;;;;1999.90;999.90;;;;;;;;;;4949935;29;20055;-87
2024/01/04 07:43:14;;;;;;;1999.90;999.90;;;;;;;;;;4942406;29;20047;-87
2024/01/04 07:45:41;;;;;;;1999.90;999.90;;;;;;;;;;4948262;29;20139;-88
2024/01/04 07:48:11;;;;;;;1999.90;999.90;;;;;;;;;;4942629;29;20047;-88
2024/01/04 07:50:47;;;;;;;1999.90;999.90;;;;;;;;;;4943920;28;20052;-90
2024/01/04 07:53:14;;;;;;;1999.90;999.90;;;;;;;;;;4948077;29;20063;-86
2024/01/04 07:55:40;;;;;;;1999.90;999.90;;;;;;;;;;4943689;29;20054;-86
2024/01/04 07:58:07;;;;;;;1999.90;999.90;;;;;;;;;;4946031;29;20142;-89
2024/01/04 08:00:34;;;;;;;1999.90;999.90;;;;;;;;;;4949441;29;20051;-87
2024/01/04 08:03:00;;;;;;;1999.90;999.90;;;;;;;;;;4948556;29;20055;-88
2024/01/04 08:05:28;;;;;;;1999.90;999.90;;;;;;;;;;4949824;29;20465;-88
2024/01/04 08:07:55;;;;;;;1999.90;999.90;;;;;;;;;;4944773;29;20421;-89
2024/01/04 08:10:21;;;;;;;1999.90;999.90;;;;;;;;;;4946472;29;20513;-87
2024/01/04 08:12:48;;;;;;;1999.90;999.90;;;;;;;;;;4945367;29;20055;-88
2024/01/04 08:15:15;;;;;;;1999.90;999.90;;;;;;;;;;4944942;29;20055;-90
2024/01/04 08:17:41;;;;;;;1999.90;999.90;;;;;;;;;;4951316;28;20059;-86
2024/01/04 08:20:09;;;;;;;1999.90;999.90;;;;;;;;;;4947187;29;20043;-89
2024/01/04 08:22:37;;;;;;;1999.90;999.90;;;;;;;;;;4947326;28;20047;-89
2024/01/04 08:25:05;;;;;;;1999.90;999.90;;;;;;;;;;4937479;29;20075;-88
2024/01/04 08:27:32;;;;;;;1999.90;999.90;;;;;;;;;;4942325;29;20417;-89
2024/01/04 08:29:59;;;;;;;1999.90;999.90;;;;;;;;;;4946499;29;20402;-89
2024/01/04 08:32:25;;;;;;;1999.90;999.90;;;;;;;;;;4937848;29;20052;-89
2024/01/04 08:34:52;;;;;;;1999.90;999.90;;;;;;;;;;4949522;29;20059;-89
2024/01/04 08:37:20;;;;;;;1999.90;999.90;;;;;;;;;;4943700;29;20141;-88
2024/01/04 08:39:48;;;;;;;1999.90;999.90;;;;;;;;;;4948250;29;20082;-90
2024/01/04 08:42:14;;;;;;;1999.90;999.90;;;;;;;;;;4948630;29;20139;-90
2024/01/04 08:44:41;;;;;;;1999.90;999.90;;;;;;;;;;4942918;29;20208;-87
2024/01/04 08:47:08;;;;;;;1999.90;999.90;;;;;;;;;;4945489;29;20071;-88
2024/01/04 08:49:34;;;;;;;1999.90;999.90;;;;;;;;;;4944403;29;20053;-87
2024/01/04 08:52:01;;;;;;;1999.90;999.90;;;;;;;;;;4939591;29;20131;-87
2024/01/04 08:54:28;;;;;;;1999.90;999.90;;;;;;;;;;4947832;29;20047;-90
2024/01/04 08:56:56;;;;;;;1999.90;999.90;;;;;;;;;;4941225;29;20056;-86
2024/01/04 08:59:23;;;;;;;1999.90;999.90;;;;;;;;;;4945166;29;20055;-88
2024/01/04 09:01:50;;;;;;;1999.90;999.90;;;;;;;;;;4943150;29;20051;-88
2024/01/04 09:04:19;;;;;;;1999.90;999.90;;;;;;;;;;4949374;29;20059;-87
2024/01/04 09:06:45;;;;;;;1999.90;999.90;;;;;;;;;;4948924;29;20151;-89
2024/01/04 09:09:12;;;;;;;1999.90;999.90;;;;;;;;;;4948032;29;20065;-90
2024/01/04 09:11:40;;;;;;;1999.90;999.90;;;;;;;;;;4946121;29;20047;-86
2024/01/04 09:14:11;;;;;;;1999.90;999.90;;;;;;;;;;4947147;29;20082;-86
2024/01/04 09:16:39;;;;;;;1999.90;999.90;;;;;;;;;;4942386;29;20044;-85
2024/01/04 09:19:06;;;;;;;1999.90;999.90;;;;;;;;;;4952222;29;20495;-85
2024/01/04 09:21:42;;;;;;;1999.90;999.90;;;;;;;;;;4943730;29;20059;-86
2024/01/04 09:24:09;;;;;;;;;;;;;;;;;;4942111;28;20548;-87
2024/01/04 09:26:38;;;;;;;;;;;;;;;;;;4955913;29;19929;-88
2024/01/04 09:29:05;;;;;;;1999.90;999.90;;;;;;;;;;4946373;29;20300;-86
2024/01/04 09:31:33;;;;;;;1999.90;999.90;;;;;;;;;;4948652;29;20075;-87
2024/01/04 09:34:00;;;;;;;1999.90;999.90;;;;;;;;;;4944814;29;20513;-88
2024/01/04 09:36:27;;;;;;;1999.90;999.90;;;;;;;;;;4957660;29;20055;-89
2024/01/04 09:38:55;;;;;;;1999.90;999.90;;;;;;;;;;4954946;29;20043;-89
2024/01/04 09:41:24;;;;;;;1999.90;999.90;;;;;;;;;;4949663;29;20075;-88
2024/01/04 09:43:55;;;;;;;1999.90;999.90;;;;;;;;;;4948632;29;20043;-87
2024/01/04 09:46:21;;;;;;;1999.90;999.90;;;;;;;;;;4944459;29;20051;-86
2024/01/04 09:48:55;;;;;;;1999.90;999.90;;;;;;;;;;4953291;28;20138;-88
2024/01/04 09:51:33;;;;;;;1999.90;999.90;;;;;;;;;;4953954;29;20076;-88
2024/01/04 09:54:01;;;;;;;1999.90;999.90;;;;;;;;;;4945888;29;20047;-88
2024/01/04 09:56:29;;;;;;;1999.90;999.90;;;;;;;;;;4944367;29;20058;-88
2024/01/04 09:58:55;;;;;;;1999.90;999.90;;;;;;;;;;4949579;29;20043;-86
2024/01/04 10:01:26;;;;;;;1999.90;999.90;;;;;;;;;;4949153;29;20063;-86
2024/01/04 10:03:54;;;;;;;1999.90;999.90;;;;;;;;;;4954714;29;20106;-87
2024/01/04 10:06:23;;;;;;;1999.90;999.90;;;;;;;;;;4948324;29;20640;-84
2024/01/04 10:08:54;;;;;;;1999.90;999.90;;;;;;;;;;4945875;29;20060;-86
2024/01/04 10:11:25;;;;;;;1999.90;999.90;;;;;;;;;;4946709;29;20809;-88
2024/01/04 10:13:51;;;;;;;1999.90;999.90;;;;;;;;;;4943505;29;20067;-87
2024/01/04 10:16:18;;;;;;;1999.90;999.90;;;;;;;;;;4947166;29;20062;-89
2024/01/04 10:18:45;;;;;;;1999.90;999.90;;;;;;;;;;4948552;29;20058;-85
2024/01/04 10:21:13;;;;;;;1999.90;999.90;;;;;;;;;;4950181;29;20051;-86
2024/01/04 10:23:39;;;;;;;1999.90;999.90;;;;;;;;;;4943967;28;20078;-87
2024/01/04 10:26:08;;;;;;;1999.90;999.90;;;;;;;;;;4941310;29;20059;-87
2024/01/04 10:28:38;;;;;;;1999.90;999.90;;;;;;;;;;4943392;29;20059;-90
2024/01/04 10:31:05;;;;;;;1999.90;999.90;;;;;;;;;;4945179;29;20095;-86
2024/01/04 10:33:32;;;;;;;1999.90;999.90;;;;;;;;;;4951522;29;20054;-84
2024/01/04 10:36:08;;;;;;;1999.90;999.90;;;;;;;;;;4943450;29;20061;-91
2024/01/04 10:38:37;;;;;;;;;;;;;;;;;;4944872;29;20043;-91
2024/01/04 10:41:04;;;;;;;1999.90;999.90;;;;;;;;;;4951148;29;19938;-91
2024/01/04 10:43:30;;;;;;;1999.90;999.90;;;;;;;;;;4931943;29;20170;-88
2024/01/04 10:46:02;;;;;;;1999.90;999.90;;;;;;;;;;4951312;29;20461;-94
2024/01/04 10:48:28;;;;;;;1999.90;999.90;;;;;;;;;;4942709;29;20043;-90
2024/01/04 10:50:58;;;;;;;1999.90;999.90;;;;;;;;;;4947263;29;20126;-89
2024/01/04 10:53:27;;;;;;;1999.90;999.90;;;;;;;;;;4945671;29;20050;-91
2024/01/04 10:55:55;;;;;;;1999.90;999.90;;;;;;;;;;4945903;29;20051;-93
2024/01/04 10:58:23;;;;;;;1999.90;999.90;;;;;;;;;;4946356;29;20062;-91
2024/01/04 11:00:50;;;;;;;1999.90;999.90;;;;;;;;;;4951874;29;20059;-91
2024/01/04 11:03:18;;;;;;;1999.90;999.90;;;;;;;;;;4946485;29;20048;-90
2024/01/04 11:05:45;;;;;;;1999.90;999.90;;;;;;;;;;4948883;29;20138;-91
2024/01/04 11:08:13;;;;;;;1999.90;999.90;;;;;;;;;;4947952;29;20137;-91
2024/01/04 11:10:41;;;;;;;1999.90;999.90;;;;;;;;;;4944985;29;20078;-90
2024/01/04 11:13:09;;;;;;;1999.90;999.90;;;;;;;;;;4949143;29;20162;-91
2024/01/04 11:15:36;;;;;;;1999.90;999.90;;;;;;;;;;4952136;29;20478;-94
2024/01/04 11:18:15;;;;;;;1999.90;999.90;;;;;;;;;;4944324;29;20062;-94
2024/01/04 11:20:59;;;;;;;1999.90;999.90;;;;;;;;;;4940801;29;20052;-89
2024/01/04 11:23:49;;;;;;;1999.90;999.90;;;;;;;;;;4936880;28;20462;-92
2024/01/04 11:26:41;;;;;;;1999.90;999.90;;;;;;;;;;4967588;28;20057;-89
2024/01/04 11:29:10;;;;;;;1999.90;999.90;;;;;;;;;;4955436;28;20086;-91
2024/01/04 11:31:42;;;;;;;1999.90;999.90;;;;;;;;;;4962443;28;20443;-89
2024/01/04 11:34:11;;;;;;;1999.90;999.90;;;;;;;;;;4963008;28;20066;-90
2024/01/04 11:36:38;;;;;;;1999.90;999.90;;;;;;;;;;4959180;28;20051;-91
2024/01/04 11:39:05;;;;;;;1999.90;999.90;;;;;;;;;;4962346;28;20079;-89
2024/01/04 11:41:33;;;;;;;1999.90;999.90;;;;;;;;;;4966304;28;20050;-92
2024/01/04 11:43:59;;;;;;;1999.90;999.90;;;;;;;;;;4968915;28;20051;-91
2024/01/04 11:46:28;;;;;;;1999.90;999.90;;;;;;;;;;4964834;28;20051;-92
2024/01/04 11:48:56;;;;;;;1999.90;999.90;;;;;;;;;;4965442;28;20074;-92
2024/01/04 11:51:35;;;;;;;1999.90;999.90;;;;;;;;;;4968675;28;20137;-94
2024/01/04 11:54:06;;;;;;;1999.90;999.90;;;;;;;;;;4961529;28;20065;-93
2024/01/04 11:56:33;;;;;;;1999.90;999.90;;;;;;;;;;4964169;28;20137;-90
2024/01/04 11:59:07;;;;;;;1999.90;999.90;;;;;;;;;;4961511;28;20047;-89
2024/01/04 12:01:40;;;;;;;1999.90;999.90;;;;;;;;;;4969981;28;20061;-89
2024/01/04 12:04:13;;;;;;;1999.90;999.90;;;;;;;;;;4959335;28;20146;-88
2024/01/04 12:06:41;;;;;;;1999.90;999.90;;;;;;;;;;4963941;28;20059;-89
2024/01/04 12:09:09;;;;;;;1999.90;999.90;;;;;;;;;;4958818;28;20054;-93
2024/01/04 12:11:36;;;;;;;1999.90;999.90;;;;;;;;;;4967454;28;20057;-90
2024/01/04 12:14:03;;;;;;;1999.90;999.90;;;;;;;;;;4964328;28;20058;-91
2024/01/04 12:16:30;;;;;;;1999.90;999.90;;;;;;;;;;4970719;28;20074;-91
2024/01/04 12:19:00;;;;;;;1999.90;999.90;;;;;;;;;;4967782;28;20063;-90
2024/01/04 12:21:27;;;;;;;1999.90;999.90;;;;;;;;;;4973746;28;20054;-91
2024/01/04 12:23:54;;;;;;;1999.90;999.90;;;;;;;;;;4977692;28;20046;-88
2024/01/04 12:26:23;;;;;;;1999.90;999.90;;;;;;;;;;4975475;28;20067;-89
2024/01/04 12:28:50;;;;;;;1999.90;999.90;;;;;;;;;;4963774;28;20055;-91
2024/01/04 12:31:16;;;;;;;1999.90;999.90;;;;;;;;;;4971588;28;20043;-91
2024/01/04 12:33:45;;;;;;;1999.90;999.90;;;;;;;;;;4967479;28;20048;-90
2024/01/04 12:36:19;;;;;;;1999.90;999.90;;;;;;;;;;4967783;28;20055;-90
2024/01/04 12:38:46;;;;;;;1999.90;999.90;;;;;;;;;;4965566;28;20493;-88
2024/01/04 12:41:22;;;;;;;1999.90;999.90;;;;;;;;;;4963444;28;20062;-85
2024/01/04 12:43:50;;;;;;;1999.90;999.90;;;;;;;;;;4964444;28;20053;-90
2024/01/04 12:46:20;;;;;;;1999.90;999.90;;;;;;;;;;4965293;28;20094;-89
2024/01/04 12:48:46;;;;;;;1999.90;999.90;;;;;;;;;;4964775;28;20046;-88
2024/01/04 12:51:15;;;;;;;1999.90;999.90;;;;;;;;;;4966939;28;20561;-88
2024/01/04 12:53:42;;;;;;;1999.90;999.90;;;;;;;;;;4963395;28;20043;-90
2024/01/04 12:56:09;;;;;;;1999.90;999.90;;;;;;;;;;4958644;28;20047;-91
2024/01/04 12:58:36;;;;;;;1999.90;999.90;;;;;;;;;;4967553;28;20163;-89
2024/01/04 13:01:03;;;;;;;1999.90;999.90;;;;;;;;;;4969975;28;20057;-89
2024/01/04 13:03:29;;;;;;;1999.90;999.90;;;;;;;;;;4971794;28;20055;-88
2024/01/04 13:05:56;;;;;;;1999.90;999.90;;;;;;;;;;4967999;28;20097;-90
2024/01/04 13:08:24;;;;;;;1999.90;999.90;;;;;;;;;;4972432;28;20065;-89
2024/01/04 13:10:50;;;;;;;1999.90;999.90;;;;;;;;;;4974246;28;20130;-89
2024/01/04 13:13:17;;;;;;;1999.90;999.90;;;;;;;;;;4980104;28;20057;-90
2024/01/04 13:15:46;;;;;;;1999.90;999.90;;;;;;;;;;4977965;28;20051;-90
2024/01/04 13:18:13;;;;;;;1999.90;999.90;;;;;;;;;;4974218;28;20433;-90
2024/01/04 13:20:49;;;;;;;1999.90;999.90;;;;;;;;;;4964715;28;20057;-89
2024/01/04 13:23:16;;;;;;;1999.90;999.90;;;;;;;;;;4958581;28;20143;-89
2024/01/04 13:25:44;;;;;;;1999.90;999.90;;;;;;;;;;4959173;28;20079;-88
2024/01/04 13:28:10;;;;;;;1999.90;999.90;;;;;;;;;;4961510;28;20079;-88
2024/01/04 13:30:37;;;;;;;1999.90;999.90;;;;;;;;;;4973526;28;20117;-92
2024/01/04 13:33:05;;;;;;;1999.90;999.90;;;;;;;;;;4968010;28;20099;-92
2024/01/04 13:35:31;;;;;;;1999.90;999.90;;;;;;;;;;4971792;28;20117;-91
2024/01/04 13:38:00;;;;;;;1999.90;999.90;;;;;;;;;;4969204;28;20050;-89
2024/01/04 13:40:28;;;;;;;1999.90;999.90;;;;;;;;;;4971752;28;20137;-90
2024/01/04 13:42:56;;;;;;;1999.90;999.90;;;;;;;;;;4964570;28;20054;-89
2024/01/04 13:45:22;;;;;;;1999.90;999.90;;;;;;;;;;4962658;28;20057;-88